Time;durP1;ratioP1;P1;durP2;ratioP2;P2;SDS_P1;SDS_P2;PMS_P1;PMS_P2;Temp;Humidity;BMP_temperature;BMP_pressure;BME280_temperature;BME280_humidity;BME280_pressure;Samples;Min_cycle;Max_cycle;Signal;HPM_P1;HPM_P2
2022/08/09 00:00:10;;;;;;;6.97;3.53;;;17.30;99.90;;;;;;5094078;28;20051;-74
2022/08/09 00:02:36;;;;;;;8.40;3.60;;;17.20;99.90;;;;;;5093306;28;20044;-74
2022/08/09 00:05:03;;;;;;;5.88;3.88;;;17.30;99.90;;;;;;5093845;28;20078;-75
2022/08/09 00:07:29;;;;;;;6.43;3.60;;;17.20;99.90;;;;;;5093872;28;20127;-74
2022/08/09 00:09:54;;;;;;;6.30;3.50;;;17.20;99.90;;;;;;5093825;28;20124;-75
2022/08/09 00:12:20;;;;;;;6.65;3.47;;;17.30;99.90;;;;;;5075263;28;20054;-75
2022/08/09 00:14:45;;;;;;;8.52;3.53;;;17.40;99.90;;;;;;5093541;28;20154;-75
2022/08/09 00:17:11;;;;;;;6.72;3.50;;;17.70;99.90;;;;;;5093711;28;20035;-74
2022/08/09 00:19:37;;;;;;;6.47;3.38;;;17.30;99.90;;;;;;5075529;28;20044;-74
2022/08/09 00:22:03;;;;;;;7.63;3.63;;;17.10;99.90;;;;;;5093679;28;20494;-75
2022/08/09 00:24:30;;;;;;;6.20;3.60;;;17.10;99.90;;;;;;5093537;28;20454;-74
2022/08/09 00:26:57;;;;;;;6.13;3.72;;;17.10;99.90;;;;;;5093326;28;20107;-75
2022/08/09 00:29:22;;;;;;;7.30;3.60;;;17.10;99.90;;;;;;5093292;28;20054;-75
2022/08/09 00:31:48;;;;;;;6.30;3.58;;;17.10;99.90;;;;;;5093293;28;20052;-74
2022/08/09 00:34:14;;;;;;;8.60;3.90;;;17.10;99.90;;;;;;5093176;28;20194;-74
2022/08/09 00:36:40;;;;;;;7.25;3.60;;;17.10;99.90;;;;;;5093130;28;20046;-75
2022/08/09 00:39:06;;;;;;;8.82;3.72;;;17.00;99.90;;;;;;5093205;28;20040;-74
2022/08/09 00:41:32;;;;;;;4.60;3.33;;;17.00;99.90;;;;;;5093076;28;20036;-75
2022/08/09 00:43:58;;;;;;;8.93;4.00;;;17.00;99.90;;;;;;5093005;28;20466;-75
2022/08/09 00:46:23;;;;;;;6.75;4.30;;;17.00;99.90;;;;;;5093065;28;20083;-74
2022/08/09 00:48:49;;;;;;;7.82;4.07;;;17.00;99.90;;;;;;5093211;28;20040;-74
2022/08/09 00:51:16;;;;;;;6.88;3.97;;;16.90;99.90;;;;;;5058440;28;20039;-75
2022/08/09 00:53:42;;;;;;;6.40;4.30;;;16.90;99.90;;;;;;5104118;28;20075;-75
2022/08/09 00:56:08;;;;;;;7.63;4.45;;;16.90;99.90;;;;;;5104798;28;20047;-74
2022/08/09 00:58:34;;;;;;;6.00;4.25;;;16.80;99.90;;;;;;5092792;28;20055;-74
2022/08/09 01:01:05;;;;;;;8.77;4.55;;;16.90;99.90;;;;;;5092936;28;20040;-75
2022/08/09 01:03:40;;;;;;;7.97;4.88;;;16.90;99.90;;;;;;5092845;28;20044;-75
2022/08/09 01:06:23;;;;;;;9.23;4.65;;;16.90;99.90;;;;;;5091735;28;20082;-75
2022/08/09 01:08:54;;;;;;;8.75;4.97;;;16.90;99.90;;;;;;5108783;28;20403;-75
2022/08/09 01:11:48;;;;;;;8.90;4.97;;;16.80;99.90;;;;;;5091484;28;20043;-75
2022/08/09 01:14:22;;;;;;;6.80;4.65;;;16.80;99.90;;;;;;5095215;28;20051;-74
2022/08/09 01:16:54;;;;;;;8.82;4.70;;;16.80;99.90;;;;;;5097085;28;20047;-75
2022/08/09 01:20:05;;;;;;;7.85;4.95;;;16.70;99.90;;;;;;5096938;28;20067;-74
2022/08/09 01:22:49;;;;;;;8.10;5.18;;;16.70;99.90;;;;;;5034625;28;20041;-74
2022/08/09 01:25:40;;;;;;;7.65;5.43;;;16.70;99.90;;;;;;5005832;28;20224;-75
2022/08/09 01:28:08;;;;;;;8.77;4.78;;;16.60;99.90;;;;;;5077269;28;20094;-74
2022/08/09 01:30:36;;;;;;;9.88;5.07;;;16.70;99.90;;;;;;5097047;28;20123;-74
2022/08/09 01:33:06;;;;;;;8.00;5.40;;;16.60;99.90;;;;;;5096286;28;20056;-75
2022/08/09 01:35:46;;;;;;;9.88;5.80;;;16.60;99.90;;;;;;5078458;28;20136;-74
2022/08/09 01:38:17;;;;;;;8.52;5.15;;;16.60;99.90;;;;;;5096610;28;20036;-74
2022/08/09 01:40:58;;;;;;;9.48;5.22;;;16.60;99.90;;;;;;5096366;28;20048;-74
2022/08/09 01:43:23;;;;;;;9.52;5.80;;;16.60;99.90;;;;;;5096589;28;20052;-75
2022/08/09 01:45:52;;;;;;;8.18;5.60;;;17.00;99.90;;;;;;5096572;28;20058;-75
2022/08/09 01:48:19;;;;;;;8.35;5.18;;;16.60;99.90;;;;;;5096474;28;20039;-75
2022/08/09 01:50:50;;;;;;;8.50;5.45;;;16.60;99.90;;;;;;5096341;28;20051;-74
2022/08/09 01:53:19;;;;;;;7.80;5.28;;;16.50;99.90;;;;;;5096095;28;20054;-75
2022/08/09 01:55:46;;;;;;;8.75;5.05;;;16.50;99.90;;;;;;5096334;28;20127;-74
2022/08/09 01:58:14;;;;;;;11.98;5.63;;;16.50;99.90;;;;;;5096162;28;20044;-75
2022/08/09 02:00:42;;;;;;;7.53;5.03;;;16.60;99.90;;;;;;5096109;28;20044;-75
2022/08/09 02:03:09;;;;;;;7.53;5.10;;;16.40;99.90;;;;;;5095793;28;20040;-75
2022/08/09 02:05:36;;;;;;;8.50;5.35;;;16.50;99.90;;;;;;5095937;28;20040;-74
2022/08/09 02:08:05;;;;;;;10.82;5.20;;;16.40;99.90;;;;;;5096024;28;20090;-74
2022/08/09 02:10:36;;;;;;;10.30;5.60;;;16.40;99.90;;;;;;5095968;28;20404;-74
2022/08/09 02:13:04;;;;;;;7.10;4.80;;;16.40;99.90;;;;;;5095934;28;20545;-74
2022/08/09 02:15:33;;;;;;;9.73;5.30;;;16.40;99.90;;;;;;5096037;28;20067;-74
2022/08/09 02:18:00;;;;;;;10.38;5.18;;;16.40;99.90;;;;;;5075829;28;20052;-75
2022/08/09 02:20:31;;;;;;;8.73;5.60;;;16.50;99.90;;;;;;5095738;28;20060;-74
2022/08/09 02:23:05;;;;;;;6.93;5.05;;;16.70;99.90;;;;;;5095916;28;20048;-75
2022/08/09 02:25:35;;;;;;;9.70;5.53;;;16.40;99.90;;;;;;5094184;28;20051;-74
2022/08/09 02:28:21;;;;;;;7.97;5.00;;;16.30;99.90;;;;;;5095410;28;20340;-75
2022/08/09 02:30:48;;;;;;;;;;;16.40;99.90;;;;;;5095859;28;20052;-75
2022/08/09 02:33:23;;;;;;;9.45;5.35;;;16.30;99.90;;;;;;5095157;28;19972;-74
2022/08/09 02:35:53;;;;;;;10.05;5.82;;;16.30;99.90;;;;;;5095267;28;20491;-74
2022/08/09 02:38:26;;;;;;;10.38;5.57;;;16.20;99.90;;;;;;5095540;28;20044;-74
2022/08/09 02:41:10;;;;;;;9.13;5.53;;;16.70;99.90;;;;;;5095367;28;20118;-75
2022/08/09 02:43:38;;;;;;;9.35;5.40;;;16.20;99.90;;;;;;5095337;28;20142;-74
2022/08/09 02:46:09;;;;;;;9.38;5.43;;;16.20;99.90;;;;;;5095415;28;20042;-74
2022/08/09 02:48:36;;;;;;;8.68;5.28;;;16.20;99.90;;;;;;5095463;28;20040;-75
2022/08/09 02:51:09;;;;;;;9.25;5.45;;;16.30;99.90;;;;;;5111030;28;20468;-75
2022/08/09 02:53:41;;;;;;;6.90;4.95;;;16.20;99.90;;;;;;5122584;27;20031;-74
2022/08/09 02:56:09;;;;;;;8.77;5.18;;;16.20;99.90;;;;;;5111191;28;20043;-74
2022/08/09 02:58:36;;;;;;;9.50;5.28;;;16.20;99.90;;;;;;5095159;28;20040;-75
2022/08/09 03:01:04;;;;;;;9.68;5.38;;;16.10;99.90;;;;;;5095183;28;20048;-75
2022/08/09 03:03:32;;;;;;;10.45;5.15;;;16.10;99.90;;;;;;5094626;28;20122;-74
2022/08/09 03:06:00;;;;;;;10.38;5.65;;;16.60;99.90;;;;;;5093327;28;20048;-75
2022/08/09 03:08:26;;;;;;;11.82;5.70;;;16.10;99.90;;;;;;5094412;28;20028;-74
2022/08/09 03:10:54;;;;;;;9.93;5.32;;;16.10;99.90;;;;;;5094508;28;20089;-75
2022/08/09 03:13:21;;;;;;;8.82;5.40;;;16.10;99.90;;;;;;5094978;28;20040;-75
2022/08/09 03:15:47;;;;;;;8.85;5.05;;;16.10;99.90;;;;;;5094609;28;20062;-74
2022/08/09 03:18:13;;;;;;;9.35;5.43;;;16.10;99.90;;;;;;5094805;28;20391;-75
2022/08/09 03:20:41;;;;;;;11.80;5.63;;;16.50;99.90;;;;;;5094472;28;20036;-74
2022/08/09 03:23:06;;;;;;;10.80;5.80;;;16.10;99.90;;;;;;5076538;28;20040;-74
2022/08/09 03:25:32;;;;;;;9.43;5.35;;;16.10;99.90;;;;;;5094303;28;20098;-74
2022/08/09 03:28:00;;;;;;;9.10;5.60;;;16.00;99.90;;;;;;5094755;28;20123;-75
2022/08/09 03:30:27;;;;;;;9.60;6.30;;;16.00;99.90;;;;;;5094302;28;20127;-74
2022/08/09 03:32:55;;;;;;;9.45;5.80;;;16.00;99.90;;;;;;5076155;28;20504;-75
2022/08/09 03:35:20;;;;;;;8.30;5.75;;;16.00;99.90;;;;;;5094055;28;20040;-74
2022/08/09 03:37:47;;;;;;;8.68;5.65;;;16.00;99.90;;;;;;5093865;28;20638;-75
2022/08/09 03:40:14;;;;;;;9.48;5.88;;;16.00;99.90;;;;;;5094221;28;20059;-74
2022/08/09 03:42:40;;;;;;;10.15;5.70;;;16.00;99.90;;;;;;5094232;28;20090;-75
2022/08/09 03:45:06;;;;;;;9.45;5.55;;;16.00;99.90;;;;;;5093325;28;20055;-74
2022/08/09 03:47:31;;;;;;;8.27;5.60;;;16.00;99.90;;;;;;5059136;28;20048;-74
2022/08/09 03:49:59;;;;;;;8.10;5.78;;;16.00;99.90;;;;;;5094188;28;20557;-75
2022/08/09 03:52:26;;;;;;;10.60;5.93;;;16.40;99.90;;;;;;5100728;28;20140;-74
2022/08/09 03:54:53;;;;;;;10.45;5.93;;;16.20;99.90;;;;;;5088999;28;20032;-75
2022/08/09 03:57:20;;;;;;;10.50;6.20;;;16.00;99.90;;;;;;5094155;28;20112;-74
2022/08/09 03:59:47;;;;;;;10.10;6.10;;;16.00;99.90;;;;;;5093943;28;20126;-74
2022/08/09 04:02:12;;;;;;;13.90;6.05;;;15.90;99.90;;;;;;5075415;28;20065;-75
2022/08/09 04:04:38;;;;;;;10.38;5.45;;;15.90;99.90;;;;;;5093580;28;20048;-75
2022/08/09 04:07:04;;;;;;;8.52;5.70;;;16.00;99.90;;;;;;5093995;28;20454;-74
2022/08/09 04:09:29;;;;;;;11.13;5.78;;;16.00;99.90;;;;;;5074268;28;20519;-74
2022/08/09 04:12:04;;;;;;;9.65;5.28;;;15.90;99.90;;;;;;5093688;28;20044;-75
2022/08/09 04:14:30;;;;;;;9.90;5.22;;;15.90;99.90;;;;;;5093673;28;20089;-75
2022/08/09 04:16:55;;;;;;;9.73;5.63;;;16.10;99.90;;;;;;5093269;28;20040;-74
2022/08/09 04:19:22;;;;;;;7.13;5.05;;;15.90;99.90;;;;;;5092198;28;20082;-74
2022/08/09 04:21:47;;;;;;;11.15;5.65;;;16.10;99.90;;;;;;5092208;28;20072;-74
2022/08/09 04:24:13;;;;;;;11.35;5.95;;;16.00;99.90;;;;;;5093259;28;20554;-75
2022/08/09 04:26:39;;;;;;;12.32;5.90;;;15.90;99.90;;;;;;5093188;28;20040;-74
2022/08/09 04:29:04;;;;;;;11.55;5.15;;;16.20;99.90;;;;;;5093352;28;20040;-75
2022/08/09 04:31:30;;;;;;;11.25;5.90;;;16.00;99.90;;;;;;5092837;28;20052;-75
2022/08/09 04:33:57;;;;;;;10.10;5.00;;;15.90;99.90;;;;;;5093209;28;20040;-74
2022/08/09 04:36:25;;;;;;;10.07;5.15;;;16.00;99.90;;;;;;5093171;28;20406;-74
2022/08/09 04:38:51;;;;;;;11.00;5.22;;;16.00;99.90;;;;;;5093176;28;20522;-75
2022/08/09 04:41:17;;;;;;;9.20;5.00;;;16.00;99.90;;;;;;5093033;28;20091;-74
2022/08/09 04:43:42;;;;;;;8.02;4.90;;;16.00;99.90;;;;;;5093391;28;20048;-75
2022/08/09 04:46:10;;;;;;;10.20;4.78;;;16.50;99.90;;;;;;5093276;28;20067;-75
2022/08/09 04:48:35;;;;;;;8.48;4.70;;;16.10;99.90;;;;;;5107853;28;20056;-75
2022/08/09 04:51:01;;;;;;;10.05;4.95;;;16.40;99.90;;;;;;5093185;28;20044;-74
2022/08/09 04:53:27;;;;;;;8.13;4.35;;;16.70;99.90;;;;;;5092764;28;20048;-75
2022/08/09 04:55:53;;;;;;;9.40;5.10;;;16.10;99.90;;;;;;5091294;28;20047;-75
2022/08/09 04:58:18;;;;;;;7.35;4.38;;;16.10;99.90;;;;;;5091851;28;20144;-75
2022/08/09 05:00:44;;;;;;;9.50;4.80;;;16.10;99.90;;;;;;5092904;28;20528;-75
2022/08/09 05:03:10;;;;;;;7.68;4.50;;;16.20;99.90;;;;;;5092665;28;20483;-75
2022/08/09 05:05:35;;;;;;;7.72;4.50;;;16.20;99.90;;;;;;5074528;28;20156;-74
2022/08/09 05:08:01;;;;;;;10.30;4.70;;;16.10;99.90;;;;;;5093039;28;20106;-74
2022/08/09 05:10:26;;;;;;;6.80;4.57;;;16.20;99.90;;;;;;5074426;28;20121;-75
2022/08/09 05:12:52;;;;;;;8.00;4.68;;;16.30;99.90;;;;;;5074708;28;20078;-74
2022/08/09 05:15:18;;;;;;;8.38;4.45;;;16.40;99.90;;;;;;5092688;28;20036;-75
2022/08/09 05:17:43;;;;;;;7.85;4.30;;;16.30;99.90;;;;;;5092958;28;20047;-74
2022/08/09 05:20:09;;;;;;;6.82;4.60;;;16.30;99.90;;;;;;5092762;28;20048;-74
2022/08/09 05:22:35;;;;;;;8.35;4.32;;;16.40;99.90;;;;;;5092430;28;20494;-75
2022/08/09 05:25:01;;;;;;;8.10;4.30;;;16.30;99.90;;;;;;5092451;28;20438;-74
2022/08/09 05:27:27;;;;;;;7.40;3.92;;;16.40;99.90;;;;;;5108010;28;20089;-76
2022/08/09 05:29:52;;;;;;;9.70;4.43;;;16.40;99.90;;;;;;5092660;28;20044;-74
2022/08/09 05:32:18;;;;;;;8.18;4.03;;;16.50;99.90;;;;;;5057702;28;20044;-75
2022/08/09 05:34:44;;;;;;;8.65;4.35;;;16.50;99.90;;;;;;5092348;28;20527;-75
2022/08/09 05:37:10;;;;;;;6.28;3.97;;;16.50;99.90;;;;;;5074434;28;20511;-75
2022/08/09 05:39:37;;;;;;;10.52;3.95;;;16.40;99.90;;;;;;5092289;28;20096;-75
2022/08/09 05:42:03;;;;;;;7.60;4.07;;;16.60;99.90;;;;;;5092075;28;20048;-75
2022/08/09 05:44:29;;;;;;;8.68;4.07;;;16.60;99.90;;;;;;5074103;28;20071;-74
2022/08/09 05:46:55;;;;;;;7.32;3.88;;;16.60;99.90;;;;;;5092485;28;20036;-75
2022/08/09 05:49:20;;;;;;;8.20;3.88;;;17.00;99.90;;;;;;5092337;28;20047;-75
2022/08/09 05:51:46;;;;;;;7.25;3.80;;;16.70;99.90;;;;;;5092193;28;20385;-75
2022/08/09 05:54:11;;;;;;;6.05;3.53;;;16.70;99.90;;;;;;5092079;28;20472;-75
2022/08/09 05:56:37;;;;;;;7.72;3.80;;;16.90;99.90;;;;;;5092185;28;20044;-75
2022/08/09 05:59:03;;;;;;;7.10;3.63;;;16.80;99.90;;;;;;5092682;28;20036;-75
2022/08/09 06:01:29;;;;;;;5.93;3.70;;;16.90;99.90;;;;;;5077851;28;20039;-74
2022/08/09 06:03:55;;;;;;;6.88;3.45;;;17.30;99.90;;;;;;5096007;28;20047;-75
2022/08/09 06:06:22;;;;;;;9.38;3.70;;;16.90;99.90;;;;;;5111784;28;20477;-75
2022/08/09 06:08:48;;;;;;;6.65;3.55;;;17.00;99.90;;;;;;5095923;28;20037;-75
2022/08/09 06:11:14;;;;;;;5.95;3.10;;;17.00;99.90;;;;;;5095629;28;20043;-75
2022/08/09 06:13:40;;;;;;;7.57;3.65;;;17.10;99.90;;;;;;5095477;28;20055;-75
2022/08/09 06:16:06;;;;;;;6.50;3.22;;;17.10;99.90;;;;;;5095734;28;20040;-75
2022/08/09 06:18:32;;;;;;;5.85;3.45;;;17.10;99.90;;;;;;5095880;28;20504;-75
2022/08/09 06:20:58;;;;;;;8.65;3.40;;;17.20;99.90;;;;;;5095403;28;20040;-76
2022/08/09 06:23:28;;;;;;;5.85;3.15;;;17.30;99.90;;;;;;5095426;28;20047;-76
2022/08/09 06:25:54;;;;;;;6.22;3.13;;;17.30;99.90;;;;;;5095195;28;20036;-76
2022/08/09 06:28:20;;;;;;;4.93;2.70;;;17.40;99.90;;;;;;5095288;28;20051;-76
2022/08/09 06:30:45;;;;;;;5.72;2.70;;;17.40;99.90;;;;;;5095437;28;20472;-76
2022/08/09 06:33:11;;;;;;;4.93;2.95;;;17.50;99.90;;;;;;5095070;28;20416;-76
2022/08/09 06:35:37;;;;;;;5.60;2.80;;;17.50;99.90;;;;;;5095338;28;20052;-76
2022/08/09 06:38:02;;;;;;;5.10;2.35;;;17.60;99.90;;;;;;5095320;28;20052;-76
2022/08/09 06:40:28;;;;;;;6.47;2.75;;;17.60;99.90;;;;;;5095530;28;20075;-76
2022/08/09 06:42:54;;;;;;;5.50;2.70;;;17.60;99.90;;;;;;5094928;28;20044;-75
2022/08/09 06:45:20;;;;;;;4.07;2.30;;;17.70;99.90;;;;;;5095111;28;20040;-75
2022/08/09 06:47:47;;;;;;;5.60;2.30;;;17.80;99.90;;;;;;5077363;28;20385;-76
2022/08/09 06:50:13;;;;;;;5.95;2.50;;;17.80;99.90;;;;;;5095350;28;20044;-76
2022/08/09 06:52:44;;;;;;;3.50;1.90;;;17.90;99.90;;;;;;5095137;28;20048;-76
2022/08/09 06:55:11;;;;;;;5.07;2.10;;;17.90;99.90;;;;;;5094962;28;20097;-76
2022/08/09 06:57:37;;;;;;;4.75;2.20;;;18.00;99.90;;;;;;5094831;28;20082;-76
2022/08/09 07:00:03;;;;;;;5.78;2.38;;;18.00;99.90;;;;;;5060273;28;20094;-76
2022/08/09 07:02:29;;;;;;;5.13;1.98;;;18.10;99.90;;;;;;5094678;28;20040;-76
2022/08/09 07:04:55;;;;;;;5.35;2.00;;;18.20;99.90;;;;;;5094669;28;20036;-76
2022/08/09 07:07:21;;;;;;;3.58;1.85;;;18.20;99.90;;;;;;5076651;28;20032;-76
2022/08/09 07:09:46;;;;;;;3.65;1.85;;;18.30;99.90;;;;;;5076791;28;20136;-76
2022/08/09 07:12:12;;;;;;;4.25;1.80;;;18.30;99.90;;;;;;5075443;28;20165;-76
2022/08/09 07:14:38;;;;;;;4.13;1.95;;;18.40;99.90;;;;;;5076369;28;20058;-76
2022/08/09 07:17:04;;;;;;;3.30;1.90;;;18.40;99.90;;;;;;5076665;28;20051;-76
2022/08/09 07:19:29;;;;;;;4.93;2.60;;;18.50;99.90;;;;;;5094804;28;20051;-76
2022/08/09 07:21:55;;;;;;;5.38;2.40;;;18.60;99.90;;;;;;5094600;28;20043;-76
2022/08/09 07:24:20;;;;;;;6.75;2.30;;;18.60;99.90;;;;;;5094270;28;20122;-76
2022/08/09 07:26:46;;;;;;;5.40;2.33;;;18.70;99.90;;;;;;5094193;28;20483;-76
2022/08/09 07:29:12;;;;;;;6.82;2.58;;;18.70;99.90;;;;;;5094599;28;20041;-76
2022/08/09 07:31:38;;;;;;;5.15;2.45;;;18.80;99.90;;;;;;5094808;28;20048;-85
2022/08/09 07:34:04;;;;;;;4.70;2.30;;;18.90;99.90;;;;;;5110652;28;20044;-76
2022/08/09 07:36:31;;;;;;;4.18;1.90;;;19.00;99.90;;;;;;5076348;28;20109;-76
2022/08/09 07:38:58;;;;;;;5.68;2.10;;;19.10;99.90;;;;;;5094175;28;20040;-76
2022/08/09 07:41:24;;;;;;;5.15;2.00;;;19.20;99.90;;;;;;5093905;28;20123;-76
2022/08/09 07:43:49;;;;;;;3.92;1.92;;;19.30;99.90;;;;;;5094339;28;20079;-76
2022/08/09 07:46:15;;;;;;;3.50;2.17;;;19.40;99.90;;;;;;5059009;28;20500;-76
2022/08/09 07:48:41;;;;;;;3.55;1.95;;;19.50;99.90;;;;;;5094233;28;20356;-76
2022/08/09 07:51:09;;;;;;;4.72;2.08;;;19.60;99.90;;;;;;5093701;28;20040;-76
2022/08/09 07:53:35;;;;;;;3.55;1.90;;;19.70;99.90;;;;;;5093667;28;20047;-76
2022/08/09 07:56:00;;;;;;;4.38;1.90;;;19.80;99.90;;;;;;5109790;28;20492;-77
2022/08/09 07:58:26;;;;;;;4.80;1.98;;;19.90;99.90;;;;;;5093793;28;20072;-77
2022/08/09 08:00:52;;;;;;;3.50;1.67;;;20.10;99.90;;;;;;5093914;28;20040;-77
2022/08/09 08:03:17;;;;;;;3.22;1.80;;;20.20;99.90;;;;;;5109722;28;20048;-76
2022/08/09 08:05:43;;;;;;;4.38;1.70;;;20.40;99.90;;;;;;5093903;28;20104;-76
2022/08/09 08:08:09;;;;;;;3.90;1.60;;;20.50;99.90;;;;;;5094009;28;20040;-76
2022/08/09 08:10:35;;;;;;;4.70;1.77;;;20.60;99.90;;;;;;5093673;28;20097;-76
2022/08/09 08:13:01;;;;;;;4.47;1.60;;;20.80;99.90;;;;;;5093978;28;20044;-76
2022/08/09 08:15:27;;;;;;;4.45;1.60;;;20.90;99.90;;;;;;5093479;28;20047;-77
2022/08/09 08:17:53;;;;;;;5.22;1.63;;;21.10;99.90;;;;;;5094487;28;20411;-76
2022/08/09 08:20:20;;;;;;;4.30;1.80;;;21.10;99.90;;;;;;5093801;28;20048;-76
2022/08/09 08:22:46;;;;;;;4.28;1.70;;;21.00;99.90;;;;;;5093972;28;20121;-76
2022/08/09 08:25:12;;;;;;;3.38;1.77;;;21.00;99.90;;;;;;5093716;28;20089;-76
2022/08/09 08:27:38;;;;;;;2.47;1.30;;;21.10;99.90;;;;;;5093623;28;20040;-76
2022/08/09 08:30:04;;;;;;;3.17;1.30;;;21.20;99.90;;;;;;5074542;28;20459;-74
2022/08/09 08:32:30;;;;;;;2.88;1.20;;;21.30;99.90;;;;;;5075394;28;20406;-75
2022/08/09 08:34:57;;;;;;;2.78;1.40;;;21.40;99.90;;;;;;5075125;28;20058;-75
2022/08/09 08:37:23;;;;;;;2.92;1.35;;;21.40;99.90;;;;;;5108960;28;20437;-75
2022/08/09 08:39:49;;;;;;;2.55;1.30;;;21.50;99.90;;;;;;5093177;28;20055;-75
2022/08/09 08:42:14;;;;;;;2.83;1.20;;;21.50;99.90;;;;;;5093291;28;20044;-75
2022/08/09 08:44:42;;;;;;;3.22;1.40;;;21.40;99.90;;;;;;5078672;28;20479;-74
2022/08/09 08:47:08;;;;;;;2.63;1.20;;;21.50;99.90;;;;;;5113724;28;20122;-74
2022/08/09 08:49:39;;;;;;;3.60;1.50;;;21.60;99.90;;;;;;5095563;28;20055;-75
2022/08/09 08:52:07;;;;;;;3.13;1.30;;;21.60;99.90;;;;;;5113343;28;20094;-75
2022/08/09 08:54:33;;;;;;;5.28;1.30;;;21.70;99.90;;;;;;5113212;28;20059;-75
2022/08/09 08:56:59;;;;;;;3.28;1.30;;;21.70;99.90;;;;;;5113553;28;20043;-75
2022/08/09 08:59:25;;;;;;;1.92;1.10;;;21.80;99.90;;;;;;5113149;28;20051;-78
2022/08/09 09:01:51;;;;;;;3.33;1.45;;;21.90;99.90;;;;;;5113520;28;20036;-76
2022/08/09 09:04:18;;;;;;;2.13;1.23;;;21.90;99.90;;;;;;5079025;28;20044;-75
2022/08/09 09:06:47;;;;;;;5.53;1.30;;;22.00;99.90;;;;;;5092912;28;20067;-75
2022/08/09 09:09:14;;;;;;;3.80;1.30;;;22.10;99.90;;;;;;5093085;28;20040;-75
2022/08/09 09:11:41;;;;;;;2.42;1.30;;;22.20;99.90;;;;;;5093172;28;20115;-75
2022/08/09 09:14:20;;;;;;;7.68;1.55;;;22.40;99.90;;;;;;5092597;28;20048;-76
2022/08/09 09:16:46;;;;;;;2.88;1.50;;;22.50;99.90;;;;;;5092897;28;20059;-76
2022/08/09 09:19:13;;;;;;;2.63;1.30;;;22.70;99.90;;;;;;5092834;28;20488;-77
2022/08/09 09:22:03;;;;;;;2.65;1.20;;;22.80;99.90;;;;;;5090818;28;20126;-75
2022/08/09 09:24:33;;;;;;;3.20;1.25;;;22.90;99.90;;;;;;5092906;28;20097;-76
2022/08/09 09:27:00;;;;;;;2.72;1.30;;;23.10;99.90;;;;;;5093180;28;20457;-76
2022/08/09 09:29:37;;;;;;;3.25;1.50;;;23.10;99.90;;;;;;5093143;28;20044;-76
2022/08/09 09:32:05;;;;;;;3.45;1.23;;;23.10;99.90;;;;;;5092852;28;20090;-76
2022/08/09 09:34:31;;;;;;;5.10;1.30;;;23.00;99.90;;;;;;5093879;28;20040;-76
2022/08/09 09:36:57;;;;;;;3.55;1.52;;;23.00;99.90;;;;;;5096734;28;20093;-76
2022/08/09 09:39:26;;;;;;;2.60;1.35;;;23.10;99.90;;;;;;5097084;28;20097;-75
2022/08/09 09:41:52;;;;;;;3.42;1.30;;;23.30;99.90;;;;;;5096716;28;20122;-75
2022/08/09 09:44:28;;;;;;;2.92;1.20;;;23.60;99.90;;;;;;5096313;28;20046;-76
2022/08/09 09:47:03;;;;;;;1.58;1.00;;;23.80;99.90;;;;;;5096806;28;20535;-77
2022/08/09 09:49:29;;;;;;;2.88;1.30;;;24.00;99.90;;;;;;5096446;28;20119;-76
2022/08/09 09:52:07;;;;;;;2.50;1.42;;;24.10;99.90;;;;;;5096743;28;20079;-77
2022/08/09 09:54:36;;;;;;;4.15;1.40;;;24.30;99.90;;;;;;5111748;28;20047;-76
2022/08/09 09:57:21;;;;;;;2.05;1.30;;;24.50;99.90;;;;;;5096340;28;20364;-76
2022/08/09 09:59:53;;;;;;;3.35;1.20;;;24.60;99.90;;;;;;5096505;28;20039;-76
2022/08/09 10:02:20;;;;;;;2.63;1.25;;;24.70;99.90;;;;;;5078248;28;20047;-76
2022/08/09 10:05:06;;;;;;;2.35;1.13;;;25.40;99.90;;;;;;5112066;28;20502;-76
2022/08/09 10:07:31;;;;;;;;;;;26.10;99.90;;;;;;5096317;28;20040;-76
2022/08/09 10:09:58;;;;;;;1.45;1.10;;;26.80;99.90;;;;;;5096439;28;19977;-76
2022/08/09 10:12:29;;;;;;;1.83;1.20;;;27.60;99.90;;;;;;5095331;28;20040;-75
2022/08/09 10:15:16;;;;;;;3.80;1.10;;;29.00;99.90;;;;;;5095558;28;20055;-76
2022/08/09 10:17:47;;;;;;;2.33;1.00;;;31.20;97.00;;;;;;5096514;28;20039;-76
2022/08/09 10:20:18;;;;;;;1.00;0.90;;;33.80;94.10;;;;;;5111541;28;20048;-76
2022/08/09 10:22:49;;;;;;;1.10;0.95;;;36.40;90.10;;;;;;5077688;28;20044;-76
2022/08/09 10:25:16;;;;;;;1.88;1.00;;;38.60;87.40;;;;;;5095909;28;20120;-76
2022/08/09 10:27:43;;;;;;;2.03;0.93;;;39.70;81.10;;;;;;5077854;28;20059;-77
2022/08/09 10:30:10;;;;;;;1.55;0.80;;;41.70;78.50;;;;;;5095893;28;20127;-74
2022/08/09 10:32:37;;;;;;;0.93;0.68;;;43.20;75.20;;;;;;5095115;28;20064;-74
2022/08/09 10:35:04;;;;;;;0.68;0.60;;;43.90;70.50;;;;;;5094405;28;20055;-75
2022/08/09 10:37:30;;;;;;;1.67;0.80;;;45.10;69.10;;;;;;5093266;28;20109;-75
2022/08/09 10:39:58;;;;;;;0.95;0.73;;;45.20;65.20;;;;;;5095267;28;20044;-75
2022/08/09 10:42:23;;;;;;;1.15;0.70;;;46.20;64.00;;;;;;5095034;28;20118;-74
2022/08/09 10:44:58;;;;;;;0.65;0.65;;;45.20;63.00;;;;;;5094958;28;20074;-75
2022/08/09 10:47:26;;;;;;;;;;;44.60;61.70;;;;;;5094122;28;20036;-75
2022/08/09 10:50:01;;;;;;;0.88;0.60;;;44.30;59.60;;;;;;5094933;28;19923;-74
2022/08/09 10:52:51;;;;;;;1.33;0.60;;;44.90;61.20;;;;;;5095046;28;20036;-74
2022/08/09 10:55:23;;;;;;;1.33;0.70;;;45.60;59.40;;;;;;5094740;28;20086;-75
2022/08/09 10:57:49;;;;;;;0.68;0.55;;;45.70;58.70;;;;;;5095114;28;20044;-74
2022/08/09 11:00:34;;;;;;;1.25;0.73;;;45.70;59.50;;;;;;5094944;28;20040;-76
2022/08/09 11:03:01;;;;;;;1.48;0.60;;;44.90;57.10;;;;;;5094691;28;20036;-75
2022/08/09 11:05:27;;;;;;;2.05;0.80;;;42.70;58.20;;;;;;5076071;28;20040;-75
2022/08/09 11:07:53;;;;;;;2.75;0.88;;;41.30;59.80;;;;;;5094578;28;20051;-75
2022/08/09 11:10:40;;;;;;;1.42;0.73;;;39.80;60.90;;;;;;5094652;28;20036;-75
2022/08/09 11:13:16;;;;;;;1.50;0.65;;;39.20;61.20;;;;;;5094752;28;20051;-75
2022/08/09 11:15:42;;;;;;;0.73;0.65;;;39.10;61.40;;;;;;5094453;28;20079;-75
2022/08/09 11:18:11;;;;;;;2.33;0.60;;;39.30;62.50;;;;;;5094347;28;20066;-75
2022/08/09 11:20:46;;;;;;;2.15;0.80;;;39.60;62.30;;;;;;5094497;28;20048;-75
2022/08/09 11:23:13;;;;;;;1.40;0.90;;;41.20;61.90;;;;;;5075950;28;20048;-75
2022/08/09 11:25:42;;;;;;;1.98;0.80;;;42.30;61.30;;;;;;5094157;28;20040;-75
2022/08/09 11:28:32;;;;;;;1.48;0.70;;;44.70;60.60;;;;;;5093309;28;20044;-77
2022/08/09 11:30:58;;;;;;;1.27;0.60;;;47.60;60.40;;;;;;5076063;28;20059;-74
2022/08/09 11:33:47;;;;;;;1.58;1.00;;;49.70;58.00;;;;;;5093876;28;20048;-75
2022/08/09 11:36:16;;;;;;;1.38;0.88;;;50.80;55.70;;;;;;5092733;28;20032;-75
2022/08/09 11:38:42;;;;;;;0.70;0.70;;;50.90;55.40;;;;;;5093364;28;20496;-75
2022/08/09 11:41:12;;;;;;;1.08;0.45;;;49.50;54.50;;;;;;5075798;28;20071;-75
2022/08/09 11:43:45;;;;;;;1.70;0.88;;;49.90;54.70;;;;;;5094257;28;20069;-75
2022/08/09 11:46:11;;;;;;;2.05;0.85;;;50.60;53.40;;;;;;5093917;28;20032;-75
2022/08/09 11:48:51;;;;;;;1.10;0.90;;;51.20;53.80;;;;;;5093925;28;20058;-75
2022/08/09 11:51:19;;;;;;;1.00;0.70;;;51.80;52.70;;;;;;5093900;28;20042;-75
2022/08/09 11:53:46;;;;;;;2.55;0.90;;;50.80;51.40;;;;;;5093394;28;20123;-75
2022/08/09 11:56:19;;;;;;;2.78;0.60;;;51.20;52.50;;;;;;5075527;28;20063;-75
2022/08/09 11:58:58;;;;;;;1.70;0.77;;;50.40;51.10;;;;;;5093270;28;20055;-75
2022/08/09 12:01:31;;;;;;;0.77;0.52;;;48.80;51.20;;;;;;5093837;28;20077;-75
2022/08/09 12:03:59;;;;;;;5.35;0.75;;;46.10;51.50;;;;;;5092465;28;20040;-75
2022/08/09 12:06:29;;;;;;;1.00;0.88;;;43.30;53.20;;;;;;5074880;28;20048;-74
2022/08/09 12:08:55;;;;;;;1.60;0.77;;;41.40;54.60;;;;;;5093587;28;20047;-74
2022/08/09 12:11:24;;;;;;;1.23;0.70;;;39.70;55.40;;;;;;5108848;28;20131;-75
2022/08/09 12:13:53;;;;;;;2.00;0.98;;;40.10;56.50;;;;;;5093442;28;20047;-76
2022/08/09 12:16:24;;;;;;;1.10;0.80;;;39.70;55.60;;;;;;5109117;28;20048;-75
2022/08/09 12:18:52;;;;;;;4.07;0.90;;;39.10;56.10;;;;;;5075412;28;20040;-75
2022/08/09 12:21:33;;;;;;;1.73;0.80;;;39.50;56.90;;;;;;5075492;28;20344;-75
2022/08/09 12:24:04;;;;;;;1.20;0.85;;;41.20;56.40;;;;;;5093538;28;20047;-75
2022/08/09 12:26:38;;;;;;;0.95;0.70;;;41.50;55.20;;;;;;5075090;28;20050;-75
2022/08/09 12:29:03;;;;;;;1.60;0.90;;;41.20;55.10;;;;;;5093609;28;20052;-75
2022/08/09 12:31:30;;;;;;;1.27;0.80;;;40.20;56.30;;;;;;5092970;28;20052;-75
2022/08/09 12:33:56;;;;;;;2.13;0.98;;;39.10;56.40;;;;;;5093301;28;20056;-75
2022/08/09 12:36:23;;;;;;;3.30;0.77;;;38.20;57.20;;;;;;5090445;28;20055;-75
2022/08/09 12:38:50;;;;;;;2.45;0.80;;;37.40;57.80;;;;;;5091877;28;20407;-75
2022/08/09 12:41:27;;;;;;;1.40;0.93;;;36.20;58.70;;;;;;5092803;28;20048;-75
2022/08/09 12:43:54;;;;;;;3.22;1.20;;;35.40;59.40;;;;;;5093035;28;20048;-75
2022/08/09 12:46:21;;;;;;;0.75;0.70;;;34.50;60.20;;;;;;5092698;28;20043;-74
2022/08/09 12:48:48;;;;;;;1.75;0.90;;;33.80;61.20;;;;;;5093082;28;20048;-76
2022/08/09 12:51:13;;;;;;;1.30;0.93;;;33.20;61.90;;;;;;5074889;28;20433;-75